createdAt,value
2024-02-19T00:02:11.945Z,81.97
2024-02-19T00:04:38.417Z,81.32
2024-02-19T00:07:04.919Z,82.33
2024-02-19T00:09:31.297Z,81.79
2024-02-19T00:11:57.821Z,82.87
2024-02-19T00:14:24.187Z,82.62
2024-02-19T00:16:50.539Z,83.08
2024-02-19T00:19:17.125Z,83.77
2024-02-19T00:21:43.593Z,82.47
2024-02-19T00:24:09.953Z,82.44
2024-02-19T00:26:36.308Z,81.63
2024-02-19T00:29:02.651Z,82.11
2024-02-19T00:31:28.996Z,81.06
2024-02-19T00:33:55.566Z,81.81
2024-02-19T00:36:22.262Z,81.95
2024-02-19T00:38:48.606Z,82.81
2024-02-19T00:41:14.971Z,81.70
2024-02-19T00:43:41.316Z,81.90
2024-02-19T00:46:07.742Z,83.09
2024-02-19T00:48:34.423Z,82.57
2024-02-19T00:51:00.906Z,82.92
2024-02-19T00:53:27.238Z,83.19
2024-02-19T00:55:54.096Z,83.41
2024-02-19T00:58:20.664Z,83.18
2024-02-19T01:00:47.224Z,84.10
2024-02-19T01:03:13.681Z,82.81
2024-02-19T01:05:40.048Z,83.20
2024-02-19T01:08:06.412Z,84.08
2024-02-19T01:10:32.776Z,83.69
2024-02-19T01:12:59.174Z,84.72
2024-02-19T01:15:25.578Z,85.04
2024-02-19T01:17:52.050Z,84.86
2024-02-19T01:20:18.458Z,84.74
2024-02-19T01:22:44.830Z,84.69
2024-02-19T01:25:11.270Z,84.42
2024-02-19T01:27:37.720Z,85.06
2024-02-19T01:30:04.092Z,84.96
2024-02-19T01:32:30.474Z,85.03
2024-02-19T01:34:56.971Z,84.62
2024-02-19T01:37:23.469Z,84.51
2024-02-19T01:39:49.904Z,84.72
2024-02-19T01:42:16.269Z,84.52
2024-02-19T01:44:42.640Z,84.94
2024-02-19T01:47:09.021Z,84.29
2024-02-19T01:49:35.434Z,84.26
2024-02-19T01:52:01.868Z,84.30
2024-02-19T01:54:29.053Z,84.24
2024-02-19T01:56:55.394Z,84.05
2024-02-19T01:59:21.735Z,83.33
2024-02-19T02:01:48.291Z,83.72
2024-02-19T02:04:14.693Z,83.20
2024-02-19T02:06:41.106Z,83.08
2024-02-19T02:09:07.510Z,83.03
2024-02-19T02:11:33.944Z,84.13
2024-02-19T02:14:00.343Z,83.13
2024-02-19T02:16:26.737Z,83.54
2024-02-19T02:18:54.588Z,84.18
2024-02-19T02:21:21.385Z,83.68
2024-02-19T02:23:47.754Z,83.20
2024-02-19T02:26:17.084Z,83.66
2024-02-19T02:28:43.434Z,83.42
2024-02-19T02:31:09.859Z,83.50
2024-02-19T02:33:36.374Z,83.95
2024-02-19T02:36:02.781Z,83.19
2024-02-19T02:38:29.155Z,83.17
2024-02-19T02:40:55.491Z,83.37
2024-02-19T02:43:21.847Z,83.63
2024-02-19T02:45:49.015Z,82.97
2024-02-19T02:48:16.219Z,82.56
2024-02-19T02:50:42.638Z,82.36
2024-02-19T02:53:08.985Z,82.97
2024-02-19T02:55:35.318Z,82.53
2024-02-19T02:58:01.690Z,83.22
2024-02-19T03:00:28.084Z,82.18
2024-02-19T03:02:54.471Z,81.69
2024-02-19T03:05:20.846Z,81.98
2024-02-19T03:07:47.399Z,82.73
2024-02-19T03:10:14.048Z,81.35
2024-02-19T03:12:40.439Z,82.98
2024-02-19T03:15:06.811Z,83.31
2024-02-19T03:17:33.189Z,82.90
2024-02-19T03:19:59.599Z,83.01
2024-02-19T03:22:26.074Z,82.94
2024-02-19T03:24:52.455Z,82.60
2024-02-19T03:27:18.806Z,83.13
2024-02-19T03:29:47.938Z,83.22
2024-02-19T03:32:14.292Z,83.41
2024-02-19T03:34:40.708Z,83.48
2024-02-19T03:37:07.283Z,82.81
2024-02-19T03:39:33.680Z,83.08
2024-02-19T03:42:00.042Z,82.62
2024-02-19T03:44:26.444Z,83.84
2024-02-19T03:46:52.877Z,83.94
2024-02-19T03:49:19.377Z,84.67
2024-02-19T03:51:45.854Z,85.54
2024-02-19T03:54:14.262Z,85.40
2024-02-19T03:56:40.899Z,84.71
2024-02-19T03:59:07.653Z,84.82
2024-02-19T04:01:34.091Z,85.51
2024-02-19T04:04:00.659Z,85.39
2024-02-19T04:06:27.126Z,85.14
2024-02-19T04:08:53.526Z,85.03
2024-02-19T04:11:19.931Z,85.31
2024-02-19T04:13:46.320Z,85.16
2024-02-19T04:16:12.744Z,85.90
2024-02-19T04:18:39.305Z,84.48
2024-02-19T04:21:05.729Z,85.44
2024-02-19T04:23:32.098Z,85.90
2024-02-19T04:25:58.435Z,85.55
2024-02-19T04:28:24.946Z,86.39
2024-02-19T04:30:51.359Z,85.70
2024-02-19T04:33:17.842Z,87.52
2024-02-19T04:35:44.258Z,86.42
2024-02-19T04:38:10.595Z,87.22
2024-02-19T04:40:36.921Z,87.82
2024-02-19T04:43:03.310Z,88.06
2024-02-19T04:45:29.776Z,88.10
2024-02-19T04:47:56.143Z,88.10
2024-02-19T04:50:22.684Z,88.08
2024-02-19T04:52:49.128Z,87.56
2024-02-19T04:55:15.524Z,86.68
2024-02-19T04:57:41.947Z,88.23
2024-02-19T05:00:08.362Z,87.92
2024-02-19T05:02:34.739Z,87.88
2024-02-19T05:05:01.260Z,87.56
2024-02-19T05:07:27.713Z,87.63
2024-02-19T05:09:54.677Z,88.80
2024-02-19T05:12:21.103Z,89.11
2024-02-19T05:14:47.472Z,89.32
2024-02-19T05:17:13.820Z,88.60
2024-02-19T05:19:40.397Z,87.58
2024-02-19T05:22:06.836Z,88.00
2024-02-19T05:24:33.253Z,87.60
2024-02-19T05:26:59.612Z,87.05
2024-02-19T05:29:28.870Z,86.61
2024-02-19T05:31:55.267Z,87.85
2024-02-19T05:34:21.807Z,88.05
2024-02-19T05:36:48.350Z,87.59
2024-02-19T05:39:14.817Z,88.18
2024-02-19T05:41:41.288Z,87.86
2024-02-19T05:44:07.757Z,87.34
2024-02-19T05:46:34.105Z,87.43
2024-02-19T05:49:00.646Z,86.95
2024-02-19T05:51:27.066Z,86.22
2024-02-19T05:53:53.408Z,86.79
2024-02-19T05:56:19.772Z,85.73
2024-02-19T05:58:46.122Z,86.63
2024-02-19T06:01:12.703Z,87.23
2024-02-19T06:03:39.329Z,86.74
2024-02-19T06:06:05.763Z,86.66
2024-02-19T06:08:32.127Z,86.11
2024-02-19T06:10:58.676Z,86.65
2024-02-19T06:13:25.214Z,85.67
2024-02-19T06:15:51.624Z,85.70
2024-02-19T06:18:18.360Z,85.06
2024-02-19T06:20:44.806Z,84.90
2024-02-19T06:23:11.153Z,84.36
2024-02-19T06:25:37.539Z,84.82
2024-02-19T06:28:03.950Z,83.87
2024-02-19T06:30:30.301Z,83.95
2024-02-19T06:32:56.706Z,84.21
2024-02-19T06:35:23.129Z,84.04
2024-02-19T06:37:49.531Z,84.46
2024-02-19T06:40:16.000Z,84.47
2024-02-19T06:42:42.436Z,83.92
2024-02-19T06:45:08.846Z,84.58
2024-02-19T06:47:35.246Z,84.63
2024-02-19T06:50:01.688Z,83.95
2024-02-19T06:52:28.121Z,84.89
2024-02-19T06:54:54.585Z,84.63
2024-02-19T06:57:20.955Z,83.93
2024-02-19T06:59:47.318Z,83.45
2024-02-19T07:02:14.114Z,83.55
2024-02-19T07:04:40.682Z,82.97
2024-02-19T07:07:07.246Z,81.38
2024-02-19T07:09:33.734Z,81.53
2024-02-19T07:12:00.106Z,81.31
2024-02-19T07:14:26.472Z,81.74
2024-02-19T07:16:52.843Z,81.99
2024-02-19T07:19:19.297Z,82.25
2024-02-19T07:21:45.771Z,82.75
2024-02-19T07:24:12.167Z,82.30
2024-02-19T07:26:38.502Z,83.52
2024-02-19T07:29:04.848Z,81.26
2024-02-19T07:31:31.278Z,79.98
2024-02-19T07:33:57.911Z,78.48
2024-02-19T07:36:24.357Z,81.49
2024-02-19T07:38:50.720Z,81.14
2024-02-19T07:41:17.052Z,81.74
2024-02-19T07:43:43.379Z,82.90
2024-02-19T07:46:09.749Z,83.31
2024-02-19T07:48:36.177Z,83.37
2024-02-19T07:51:02.609Z,83.43
2024-02-19T07:53:28.964Z,84.52
2024-02-19T07:55:55.313Z,85.39
2024-02-19T07:58:21.957Z,85.30
2024-02-19T08:00:48.493Z,84.86
2024-02-19T08:03:14.941Z,84.35
2024-02-19T08:05:41.284Z,83.63
2024-02-19T08:08:07.655Z,83.67
2024-02-19T08:10:34.239Z,83.05
2024-02-19T08:13:00.748Z,82.34
2024-02-19T08:15:27.241Z,81.44
2024-02-19T08:17:53.699Z,81.74
2024-02-19T08:20:20.122Z,82.19
2024-02-19T08:22:47.231Z,81.35
2024-02-19T08:25:13.810Z,82.49
2024-02-19T08:27:40.217Z,83.18
2024-02-19T08:30:06.650Z,83.91
2024-02-19T08:32:33.098Z,82.24
2024-02-19T08:34:59.615Z,82.96
2024-02-19T08:37:26.061Z,82.06
2024-02-19T08:39:52.520Z,82.63
2024-02-19T08:42:18.918Z,80.27
2024-02-19T08:44:45.302Z,80.11
2024-02-19T08:47:11.664Z,80.59
2024-02-19T08:49:38.124Z,83.81
2024-02-19T08:52:04.592Z,81.95
2024-02-19T08:54:30.948Z,82.85
2024-02-19T08:56:57.289Z,82.01
2024-02-19T08:59:23.644Z,81.52
2024-02-19T09:01:50.171Z,80.25
2024-02-19T09:04:16.788Z,80.33
2024-02-19T09:06:43.401Z,79.99
2024-02-19T09:09:09.819Z,79.43
2024-02-19T09:11:36.198Z,78.91
2024-02-19T09:14:02.610Z,78.06
2024-02-19T09:16:29.037Z,78.27
2024-02-19T09:18:55.670Z,76.89
2024-02-19T09:21:22.176Z,79.11
2024-02-19T09:23:48.564Z,80.72
2024-02-19T09:26:14.921Z,80.88
2024-02-19T09:28:41.289Z,76.98
2024-02-19T09:31:07.693Z,77.87
2024-02-19T09:33:34.110Z,77.55
2024-02-19T09:36:00.556Z,77.48
2024-02-19T09:38:26.903Z,76.92
2024-02-19T09:40:53.393Z,77.17
2024-02-19T09:43:19.831Z,76.27
2024-02-19T09:45:46.294Z,77.35
2024-02-19T09:48:12.853Z,77.55
2024-02-19T09:50:39.314Z,75.46
2024-02-19T09:53:05.672Z,75.00
2024-02-19T09:55:32.040Z,73.12
2024-02-19T09:57:58.527Z,71.47
2024-02-19T10:00:24.944Z,71.45
2024-02-19T10:02:51.353Z,69.52
2024-02-19T10:05:17.859Z,67.06
2024-02-19T10:07:44.442Z,67.99
2024-02-19T10:10:10.875Z,69.05
2024-02-19T10:12:37.295Z,71.84
2024-02-19T10:15:03.696Z,73.11
2024-02-19T10:17:30.113Z,74.03
2024-02-19T10:19:56.669Z,73.70
2024-02-19T10:22:23.096Z,74.71
2024-02-19T10:24:49.506Z,72.15
2024-02-19T10:27:15.900Z,72.88
2024-02-19T10:29:42.250Z,72.59
2024-02-19T10:32:08.597Z,71.12
2024-02-19T10:34:35.009Z,71.22
2024-02-19T10:37:01.408Z,71.16
2024-02-19T10:39:27.767Z,71.69
2024-02-19T10:41:54.165Z,71.95
2024-02-19T10:44:20.505Z,72.19
2024-02-19T10:46:46.891Z,72.32
2024-02-19T10:49:13.339Z,72.66
2024-02-19T10:51:40.123Z,71.38
2024-02-19T10:54:06.539Z,69.35
2024-02-19T10:56:32.943Z,67.01
2024-02-19T10:58:59.321Z,67.25
2024-02-19T11:01:25.799Z,63.54
2024-02-19T11:03:52.436Z,64.01
2024-02-19T11:06:18.935Z,66.68
2024-02-19T11:08:45.300Z,67.87
2024-02-19T11:11:11.794Z,68.62
2024-02-19T11:13:38.184Z,67.26
2024-02-19T11:16:04.575Z,69.46
2024-02-19T11:18:31.079Z,64.80
2024-02-19T11:20:57.458Z,63.23
2024-02-19T11:23:23.822Z,62.55
2024-02-19T11:25:50.203Z,62.17
2024-02-19T11:28:16.746Z,62.68
2024-02-19T11:30:43.450Z,62.68
2024-02-19T11:33:09.972Z,61.37
2024-02-19T11:35:36.830Z,62.44
2024-02-19T11:38:03.443Z,59.29
2024-02-19T11:40:29.929Z,58.43
2024-02-19T11:42:56.367Z,56.79
2024-02-19T11:45:22.720Z,59.81
2024-02-19T11:47:49.130Z,56.72
2024-02-19T11:50:15.598Z,55.48
2024-02-19T11:52:42.008Z,54.60
2024-02-19T11:55:08.407Z,55.71
2024-02-19T11:57:34.758Z,55.89
2024-02-19T12:00:01.095Z,56.44
2024-02-19T12:02:27.497Z,55.12
2024-02-19T12:04:53.933Z,53.43
2024-02-19T12:07:20.516Z,54.37
2024-02-19T12:09:47.035Z,54.71
2024-02-19T12:12:13.395Z,53.66
2024-02-19T12:14:39.728Z,53.50
2024-02-19T12:17:06.106Z,54.60
2024-02-19T12:19:32.821Z,52.63
2024-02-19T12:21:59.460Z,51.14
2024-02-19T12:24:25.871Z,51.59
2024-02-19T12:26:52.214Z,52.07
2024-02-19T12:29:18.553Z,52.33
2024-02-19T12:31:44.934Z,52.30
2024-02-19T12:34:11.406Z,51.91
2024-02-19T12:36:37.864Z,52.49
2024-02-19T12:39:04.272Z,53.01
2024-02-19T12:41:30.676Z,52.88
2024-02-19T12:43:57.096Z,52.81
2024-02-19T12:46:23.521Z,52.67
2024-02-19T12:48:50.102Z,53.38
2024-02-19T12:51:16.621Z,54.97
2024-02-19T12:53:43.043Z,56.04
2024-02-19T12:56:09.394Z,53.42
2024-02-19T12:58:35.801Z,54.22
2024-02-19T13:01:09.189Z,53.56
2024-02-19T13:03:39.416Z,53.05
2024-02-19T13:06:05.936Z,51.71
2024-02-19T13:08:32.406Z,51.74
2024-02-19T13:10:58.755Z,52.07
2024-02-19T13:13:25.181Z,52.00
2024-02-19T13:15:51.648Z,52.24
2024-02-19T13:18:18.236Z,53.05
2024-02-19T13:20:44.665Z,53.48
2024-02-19T13:23:11.039Z,53.56
2024-02-19T13:25:37.484Z,55.00
2024-02-19T13:28:03.933Z,54.58
2024-02-19T13:30:30.304Z,53.01
2024-02-19T13:32:56.705Z,53.46
2024-02-19T13:35:23.302Z,53.62
2024-02-19T13:37:49.765Z,53.97
2024-02-19T13:40:16.277Z,53.00
2024-02-19T13:42:42.804Z,52.95
2024-02-19T13:45:09.216Z,53.61
2024-02-19T13:47:35.956Z,53.26
2024-02-19T13:50:03.675Z,53.10
2024-02-19T13:52:30.149Z,53.44
2024-02-19T13:54:56.570Z,53.59
2024-02-19T13:57:22.972Z,53.77
2024-02-19T13:59:49.349Z,52.93
2024-02-19T14:02:15.812Z,53.84
2024-02-19T14:04:42.395Z,52.02
2024-02-19T14:07:08.841Z,51.80
2024-02-19T14:09:35.219Z,51.20
2024-02-19T14:12:01.631Z,51.65
2024-02-19T14:14:28.001Z,51.68
2024-02-19T14:16:54.341Z,52.85
2024-02-19T14:19:20.866Z,52.06
2024-02-19T14:21:47.258Z,51.35
2024-02-19T14:24:13.630Z,51.91
2024-02-19T14:26:40.031Z,52.45
2024-02-19T14:29:06.363Z,53.52
2024-02-19T14:31:32.812Z,54.98
2024-02-19T14:33:59.367Z,55.79
2024-02-19T14:36:25.815Z,56.55
2024-02-19T14:38:52.346Z,57.54
2024-02-19T14:41:18.695Z,58.29
2024-02-19T14:43:45.090Z,58.32
2024-02-19T14:46:11.594Z,57.68
2024-02-19T14:48:38.127Z,58.41
2024-02-19T14:51:04.519Z,57.94
2024-02-19T14:53:30.874Z,57.78
2024-02-19T14:55:57.236Z,57.30
2024-02-19T14:58:23.613Z,57.03
2024-02-19T15:00:50.196Z,57.15
2024-02-19T15:03:16.710Z,57.46
2024-02-19T15:05:43.072Z,56.72
2024-02-19T15:08:09.540Z,54.67
2024-02-19T15:10:36.095Z,54.91
2024-02-19T15:13:02.557Z,55.19
2024-02-19T15:15:28.934Z,54.11
2024-02-19T15:17:55.395Z,54.76
2024-02-19T15:20:22.083Z,54.65
2024-02-19T15:22:48.581Z,54.61
2024-02-19T15:25:15.033Z,54.03
2024-02-19T15:27:41.439Z,54.00
2024-02-19T15:30:07.796Z,53.67
2024-02-19T15:32:34.209Z,53.45
2024-02-19T15:35:00.713Z,53.94
2024-02-19T15:37:27.303Z,54.44
2024-02-19T15:39:53.777Z,54.62
2024-02-19T15:42:20.142Z,55.54
2024-02-19T15:44:47.594Z,55.15
2024-02-19T15:47:13.985Z,55.26
2024-02-19T15:49:40.438Z,55.42
2024-02-19T15:52:06.932Z,55.02
2024-02-19T15:54:33.349Z,54.55
2024-02-19T15:56:59.710Z,55.96
2024-02-19T15:59:26.151Z,55.96
2024-02-19T16:01:54.510Z,56.27
2024-02-19T16:04:22.731Z,56.84
2024-02-19T16:06:49.168Z,57.21
2024-02-19T16:09:15.640Z,56.82
2024-02-19T16:11:42.036Z,56.68
2024-02-19T16:14:08.425Z,55.94
2024-02-19T16:16:34.878Z,56.39
2024-02-19T16:19:01.451Z,56.79
2024-02-19T16:21:27.886Z,57.97
2024-02-19T16:23:54.274Z,59.42
2024-02-19T16:26:20.649Z,57.71
2024-02-19T16:28:46.996Z,57.02
2024-02-19T16:31:13.429Z,58.47
2024-02-19T16:33:39.956Z,58.39
2024-02-19T16:36:08.888Z,60.23
2024-02-19T16:38:35.519Z,59.68
2024-02-19T16:41:01.895Z,61.73
2024-02-19T16:43:28.316Z,63.50
2024-02-19T16:45:54.865Z,63.24
2024-02-19T16:48:21.552Z,63.46
2024-02-19T16:50:47.995Z,65.83
2024-02-19T16:53:14.364Z,64.20
2024-02-19T16:55:40.768Z,62.34
2024-02-19T16:58:07.128Z,61.20
2024-02-19T17:00:33.524Z,60.86
2024-02-19T17:02:59.876Z,59.10
2024-02-19T17:05:26.534Z,58.59
2024-02-19T17:07:53.265Z,58.79
2024-02-19T17:10:19.822Z,59.79
2024-02-19T17:12:46.400Z,60.50
2024-02-19T17:15:12.857Z,61.12
2024-02-19T17:17:39.227Z,61.83
2024-02-19T17:20:05.667Z,60.87
2024-02-19T17:22:32.093Z,59.63
2024-02-19T17:24:58.479Z,58.80
2024-02-19T17:27:24.841Z,59.36
2024-02-19T17:29:51.229Z,58.94
2024-02-19T17:32:17.597Z,58.46
2024-02-19T17:34:44.219Z,58.04
2024-02-19T17:37:10.870Z,57.93
2024-02-19T17:39:37.307Z,59.22
2024-02-19T17:42:03.652Z,58.62
2024-02-19T17:44:30.045Z,58.11
2024-02-19T17:46:56.420Z,57.67
2024-02-19T17:49:22.877Z,57.72
2024-02-19T17:51:49.351Z,58.36
2024-02-19T17:54:15.724Z,58.08
2024-02-19T17:56:42.076Z,58.28
2024-02-19T17:59:10.759Z,58.31
2024-02-19T18:01:38.202Z,57.45
2024-02-19T18:04:04.714Z,57.01
2024-02-19T18:06:33.392Z,57.42
2024-02-19T18:08:59.953Z,58.20
2024-02-19T18:11:26.399Z,58.07
2024-02-19T18:13:52.842Z,57.83
2024-02-19T18:16:19.275Z,58.30
2024-02-19T18:18:45.972Z,58.12
2024-02-19T18:21:12.481Z,57.97
2024-02-19T18:23:38.834Z,58.68
2024-02-19T18:26:06.877Z,59.44
2024-02-19T18:28:33.649Z,59.21
2024-02-19T18:31:00.090Z,58.87
2024-02-19T18:33:26.487Z,58.43
2024-02-19T18:35:52.856Z,58.72
2024-02-19T18:38:19.251Z,58.26
2024-02-19T18:40:45.622Z,59.14
2024-02-19T18:43:12.015Z,59.47
2024-02-19T18:45:38.373Z,58.87
2024-02-19T18:48:04.822Z,59.85
2024-02-19T18:50:31.352Z,58.56
2024-02-19T18:52:57.909Z,58.75
2024-02-19T18:55:24.312Z,59.06
2024-02-19T18:57:50.755Z,58.50
2024-02-19T19:00:17.183Z,59.35
2024-02-19T19:02:43.771Z,59.82
2024-02-19T19:05:10.734Z,59.86
2024-02-19T19:07:37.639Z,60.01
2024-02-19T19:10:04.088Z,59.61
2024-02-19T19:12:30.517Z,59.63
2024-02-19T19:14:56.886Z,59.91
2024-02-19T19:17:23.357Z,59.88
2024-02-19T19:19:49.858Z,59.10
2024-02-19T19:22:16.477Z,59.40
2024-02-19T19:24:42.907Z,59.29
2024-02-19T19:27:09.287Z,59.96
2024-02-19T19:29:35.640Z,59.97
2024-02-19T19:32:01.984Z,60.50
2024-02-19T19:34:28.490Z,60.51
2024-02-19T19:36:55.063Z,60.09
2024-02-19T19:39:21.458Z,60.31
2024-02-19T19:41:47.889Z,59.48
2024-02-19T19:44:14.258Z,59.27
2024-02-19T19:46:40.677Z,59.23
2024-02-19T19:49:07.117Z,59.07
2024-02-19T19:51:33.517Z,58.34
2024-02-19T19:53:59.875Z,58.52
2024-02-19T19:56:26.250Z,58.12
2024-02-19T19:58:52.653Z,58.71
2024-02-19T20:01:19.088Z,58.69
2024-02-19T20:03:45.676Z,59.81
2024-02-19T20:06:12.398Z,59.94
2024-02-19T20:08:38.780Z,59.85
2024-02-19T20:11:05.184Z,59.92
2024-02-19T20:13:31.721Z,61.56
2024-02-19T20:15:58.131Z,64.67
2024-02-19T20:18:24.632Z,68.39
2024-02-19T20:20:51.083Z,71.22
2024-02-19T20:23:17.444Z,71.28
2024-02-19T20:25:43.812Z,71.24
2024-02-19T20:28:10.204Z,71.58
2024-02-19T20:30:36.560Z,70.93
2024-02-19T20:33:03.037Z,70.87
2024-02-19T20:35:29.425Z,69.93
2024-02-19T20:37:55.942Z,71.47
2024-02-19T20:40:22.504Z,72.14
2024-02-19T20:42:48.982Z,71.53
2024-02-19T20:45:15.365Z,71.44
2024-02-19T20:47:41.862Z,70.96
2024-02-19T20:50:08.291Z,68.77
2024-02-19T20:52:34.752Z,69.66
2024-02-19T20:55:01.208Z,71.14
2024-02-19T20:57:27.593Z,71.11
2024-02-19T20:59:53.941Z,70.60
2024-02-19T21:02:20.352Z,73.29
2024-02-19T21:04:46.842Z,75.26
2024-02-19T21:07:13.418Z,74.11
2024-02-19T21:09:39.873Z,73.12
2024-02-19T21:12:06.229Z,71.51
2024-02-19T21:14:32.695Z,73.36
2024-02-19T21:16:59.058Z,73.55
2024-02-19T21:19:25.520Z,69.21
2024-02-19T21:21:52.065Z,73.08
2024-02-19T21:24:18.510Z,74.83
2024-02-19T21:26:44.877Z,73.65
2024-02-19T21:29:11.219Z,73.72
2024-02-19T21:31:37.603Z,71.79
2024-02-19T21:34:04.174Z,72.17
2024-02-19T21:36:30.896Z,73.80
2024-02-19T21:38:57.336Z,74.88
2024-02-19T21:41:23.741Z,74.96
2024-02-19T21:43:50.129Z,75.07
2024-02-19T21:46:16.572Z,74.24
2024-02-19T21:48:43.088Z,71.52
2024-02-19T21:51:09.459Z,74.41
2024-02-19T21:53:35.839Z,73.20
2024-02-19T21:56:02.211Z,71.71
2024-02-19T21:58:28.762Z,72.22
2024-02-19T22:00:55.307Z,75.44
2024-02-19T22:03:21.714Z,77.26
2024-02-19T22:05:48.190Z,77.69
2024-02-19T22:08:14.573Z,76.18
2024-02-19T22:10:41.038Z,77.62
2024-02-19T22:13:07.565Z,79.55
2024-02-19T22:15:33.941Z,79.59
2024-02-19T22:18:00.395Z,78.49
2024-02-19T22:20:26.809Z,78.60
2024-02-19T22:22:53.184Z,79.13
2024-02-19T22:25:19.985Z,77.13
2024-02-19T22:27:46.446Z,75.50
2024-02-19T22:30:12.826Z,77.92
2024-02-19T22:32:39.226Z,78.61
2024-02-19T22:35:05.764Z,79.09
2024-02-19T22:37:32.224Z,77.34
2024-02-19T22:39:58.661Z,76.00
2024-02-19T22:42:25.030Z,75.14
2024-02-19T22:44:51.467Z,74.93
2024-02-19T22:47:17.897Z,74.58
2024-02-19T22:49:44.335Z,74.92
2024-02-19T22:52:10.773Z,75.92
2024-02-19T22:54:37.126Z,75.88
2024-02-19T22:57:03.456Z,75.15
2024-02-19T22:59:29.837Z,74.97
2024-02-19T23:01:56.278Z,74.89
2024-02-19T23:04:22.765Z,75.17
2024-02-19T23:06:49.388Z,74.64
2024-02-19T23:09:15.920Z,74.06
2024-02-19T23:11:42.327Z,75.37
2024-02-19T23:14:08.730Z,73.03
2024-02-19T23:16:35.141Z,74.41
2024-02-19T23:19:01.690Z,73.06
2024-02-19T23:21:28.133Z,72.01
2024-02-19T23:23:54.463Z,74.39
2024-02-19T23:26:20.919Z,73.43
2024-02-19T23:28:47.302Z,74.68
2024-02-19T23:31:13.670Z,73.13
2024-02-19T23:33:40.099Z,71.84
2024-02-19T23:36:06.557Z,72.51
2024-02-19T23:38:32.896Z,73.97
2024-02-19T23:40:59.244Z,74.00
2024-02-19T23:43:25.675Z,73.55
2024-02-19T23:45:52.069Z,72.55
2024-02-19T23:48:18.601Z,72.40
2024-02-19T23:50:45.034Z,73.07
2024-02-19T23:53:11.433Z,72.10
2024-02-19T23:55:37.873Z,73.92
2024-02-19T23:58:04.353Z,73.09
